createdAt,value
2018-07-24T00:01:43.082Z,19.60
2018-07-24T00:04:11.290Z,19.40
2018-07-24T00:06:39.550Z,19.40
2018-07-24T00:09:08.468Z,19.20
2018-07-24T00:11:36.702Z,19.10
2018-07-24T00:14:04.981Z,18.90
2018-07-24T00:16:33.354Z,19.10
2018-07-24T00:19:01.579Z,18.80
2018-07-24T00:21:29.853Z,18.20
2018-07-24T00:23:58.081Z,17.90
2018-07-24T00:26:26.257Z,17.70
2018-07-24T00:28:54.453Z,17.60
2018-07-24T00:31:22.708Z,17.50
2018-07-24T00:33:50.875Z,17.50
2018-07-24T00:36:19.052Z,17.80
2018-07-24T00:38:47.207Z,17.60
2018-07-24T00:41:15.353Z,17.50
2018-07-24T00:43:43.568Z,17.40
2018-07-24T00:46:11.783Z,17.40
2018-07-24T00:48:40.038Z,17.20
2018-07-24T00:51:08.253Z,17.20
2018-07-24T00:53:36.469Z,17.20
2018-07-24T00:56:04.788Z,17.20
2018-07-24T00:58:32.949Z,17.10
2018-07-24T01:01:01.212Z,17.10
2018-07-24T01:03:29.389Z,17.50
2018-07-24T01:05:57.594Z,17.80
2018-07-24T01:08:25.771Z,18.10
2018-07-24T01:10:54.049Z,18.20
2018-07-24T01:13:22.307Z,18.20
2018-07-24T01:15:50.553Z,18.00
2018-07-24T01:18:18.754Z,17.50
2018-07-24T01:20:46.965Z,17.00
2018-07-24T01:23:15.191Z,16.80
2018-07-24T01:25:43.402Z,16.70
2018-07-24T01:28:11.582Z,16.70
2018-07-24T01:30:39.795Z,17.00
2018-07-24T01:33:07.994Z,17.40
2018-07-24T01:35:36.191Z,17.60
2018-07-24T01:38:04.380Z,17.20
2018-07-24T01:40:32.590Z,17.60
2018-07-24T01:43:00.819Z,17.80
2018-07-24T01:45:29.043Z,18.00
2018-07-24T01:47:57.235Z,17.50
2018-07-24T01:50:25.438Z,16.90
2018-07-24T01:52:53.621Z,16.60
2018-07-24T01:55:21.834Z,16.90
2018-07-24T01:57:50.146Z,16.70
2018-07-24T02:00:18.797Z,16.70
2018-07-24T02:02:47.009Z,17.00
2018-07-24T02:05:15.228Z,17.20
2018-07-24T02:07:43.524Z,17.00
2018-07-24T02:10:11.745Z,16.60
2018-07-24T02:12:40.047Z,16.30
2018-07-24T02:15:08.560Z,16.20
2018-07-24T02:17:37.455Z,16.10
2018-07-24T02:20:05.930Z,16.30
2018-07-24T02:22:34.117Z,16.90
2018-07-24T02:25:02.277Z,17.30
2018-07-24T02:27:30.554Z,17.50
2018-07-24T02:29:58.798Z,17.70
2018-07-24T02:32:27.006Z,17.70
2018-07-24T02:34:55.197Z,17.80
2018-07-24T02:37:23.419Z,18.00
2018-07-24T02:39:51.651Z,17.90
2018-07-24T02:42:19.906Z,18.10
2018-07-24T02:44:48.061Z,18.10
2018-07-24T02:49:44.159Z,17.70
2018-07-24T02:52:12.350Z,17.20
2018-07-24T02:54:40.524Z,16.80
2018-07-24T02:57:08.761Z,17.10
2018-07-24T02:59:36.966Z,17.00
2018-07-24T03:02:05.263Z,16.60
2018-07-24T03:04:33.545Z,16.40
2018-07-24T03:07:01.727Z,16.20
2018-07-24T03:09:29.959Z,15.90
2018-07-24T03:11:58.201Z,15.80
2018-07-24T03:14:26.396Z,15.90
2018-07-24T03:16:54.741Z,16.10
2018-07-24T03:19:22.964Z,16.10
2018-07-24T03:21:51.209Z,16.00
2018-07-24T03:24:19.464Z,16.10
2018-07-24T03:26:47.891Z,16.50
2018-07-24T03:29:16.063Z,16.60
2018-07-24T03:31:44.260Z,16.10
2018-07-24T03:34:12.956Z,16.30
2018-07-24T03:36:41.162Z,15.90
2018-07-24T03:39:11.708Z,15.90
2018-07-24T03:41:39.990Z,16.20
2018-07-24T03:44:08.199Z,15.80
2018-07-24T03:46:36.442Z,16.10
2018-07-24T03:49:04.639Z,16.20
2018-07-24T03:51:32.869Z,15.70
2018-07-24T03:54:01.132Z,15.50
2018-07-24T03:56:29.422Z,15.90
2018-07-24T03:58:57.698Z,16.00
2018-07-24T04:03:53.965Z,16.50
2018-07-24T04:06:22.162Z,16.30
2018-07-24T04:08:50.354Z,16.80
2018-07-24T04:11:18.585Z,17.00
2018-07-24T04:13:46.786Z,16.80
2018-07-24T04:16:14.989Z,16.80
2018-07-24T04:18:46.213Z,16.10
2018-07-24T04:21:14.958Z,15.90
2018-07-24T04:23:43.374Z,15.80
2018-07-24T04:26:11.658Z,15.80
2018-07-24T04:28:41.222Z,15.80
2018-07-24T04:36:05.372Z,15.70
2018-07-24T04:38:33.741Z,16.00
2018-07-24T04:41:01.941Z,16.20
2018-07-24T04:43:30.139Z,16.10
2018-07-24T04:45:58.431Z,16.00
2018-07-24T04:48:26.713Z,16.30
2018-07-24T04:50:54.902Z,16.10
2018-07-24T04:53:23.209Z,16.30
2018-07-24T04:55:51.534Z,16.80
2018-07-24T05:00:47.822Z,16.60
2018-07-24T05:03:16.189Z,16.60
2018-07-24T05:05:44.505Z,17.00
2018-07-24T05:08:12.837Z,17.20
2018-07-24T05:10:41.125Z,16.90
2018-07-24T05:13:09.413Z,16.90
2018-07-24T05:15:37.618Z,16.70
2018-07-24T05:18:05.918Z,16.60
2018-07-24T05:23:02.214Z,16.70
2018-07-24T05:25:30.489Z,17.00
2018-07-24T05:27:58.818Z,17.00
2018-07-24T05:32:55.138Z,17.30
2018-07-24T05:35:23.422Z,17.50
2018-07-24T05:37:51.685Z,17.70
2018-07-24T05:40:19.933Z,18.30
2018-07-24T05:42:48.222Z,18.70
2018-07-24T05:45:16.491Z,18.50
2018-07-24T05:47:44.822Z,18.40
2018-07-24T05:50:13.156Z,18.40
2018-07-24T05:52:41.454Z,18.40
2018-07-24T05:55:09.765Z,18.70
2018-07-24T05:57:37.970Z,19.40
2018-07-24T06:00:06.370Z,20.10
2018-07-24T06:02:34.669Z,20.20
2018-07-24T06:05:02.962Z,19.40
2018-07-24T06:07:31.264Z,19.20
2018-07-24T06:09:59.584Z,19.20
2018-07-24T06:12:27.939Z,19.70
2018-07-24T06:14:56.898Z,20.30
2018-07-24T06:19:53.204Z,21.50
2018-07-24T06:22:21.528Z,22.40
2018-07-24T06:27:17.845Z,23.00
2018-07-24T06:29:46.099Z,23.40
2018-07-24T06:32:14.318Z,22.70
2018-07-24T06:34:42.541Z,22.70
2018-07-24T06:37:10.883Z,23.50
2018-07-24T06:39:39.193Z,23.70
2018-07-24T06:42:07.426Z,23.90
2018-07-24T06:47:03.749Z,24.60
2018-07-24T06:49:32.035Z,24.70
2018-07-24T06:52:00.412Z,25.00
2018-07-24T06:54:28.639Z,25.10
2018-07-24T06:56:56.913Z,25.50
2018-07-24T06:59:25.219Z,25.80
2018-07-24T07:01:53.491Z,25.70
2018-07-24T07:04:21.756Z,25.70
2018-07-24T07:06:50.030Z,26.00
2018-07-24T07:09:18.275Z,26.40
2018-07-24T07:11:46.591Z,26.60
2018-07-24T07:14:14.963Z,26.90
2018-07-24T07:16:43.309Z,27.10
2018-07-24T07:19:11.614Z,27.50
2018-07-24T07:21:39.950Z,27.80
2018-07-24T07:26:36.330Z,26.70
2018-07-24T07:34:25.073Z,26.10
2018-07-24T07:36:53.240Z,26.10
2018-07-24T07:39:21.433Z,25.90
2018-07-24T07:41:49.572Z,25.70
2018-07-24T07:44:17.719Z,27.10
2018-07-24T07:46:45.892Z,27.40
2018-07-24T07:51:42.057Z,28.80
2018-07-24T07:54:10.240Z,28.10
2018-07-24T07:56:38.501Z,27.00
2018-07-24T07:59:06.757Z,28.80
2018-07-24T08:04:03.064Z,29.10
2018-07-24T08:06:31.295Z,28.50
2018-07-24T08:08:59.464Z,27.80
2018-07-24T08:11:27.636Z,27.20
2018-07-24T08:13:55.854Z,27.80
2018-07-24T08:16:24.025Z,28.10
2018-07-24T08:18:52.194Z,28.20
2018-07-24T08:21:20.404Z,28.10
2018-07-24T08:23:48.596Z,27.60
2018-07-24T08:26:16.731Z,28.00
2018-07-24T08:28:44.908Z,28.90
2018-07-24T08:31:13.109Z,29.40
2018-07-24T08:33:41.319Z,29.80
2018-07-24T08:36:09.512Z,28.80
2018-07-24T08:38:37.685Z,30.20
2018-07-24T08:41:05.860Z,29.20
2018-07-24T08:43:33.993Z,29.10
2018-07-24T08:46:02.168Z,28.70
2018-07-24T08:48:30.417Z,28.70
2018-07-24T08:50:58.581Z,30.30
2018-07-24T08:53:27.123Z,30.90
2018-07-24T08:55:54.989Z,31.10
2018-07-24T08:58:23.184Z,31.40
2018-07-24T09:00:51.356Z,30.90
2018-07-24T09:03:19.558Z,30.50
2018-07-24T09:05:47.751Z,30.20
2018-07-24T09:08:15.909Z,31.50
2018-07-24T09:10:44.093Z,30.90
2018-07-24T09:13:15.329Z,30.90
2018-07-24T09:15:43.493Z,31.00
2018-07-24T09:18:11.715Z,30.00
2018-07-24T09:23:07.919Z,31.70
2018-07-24T09:25:36.084Z,30.80
2018-07-24T09:28:04.260Z,30.10
2018-07-24T09:30:32.423Z,30.40
2018-07-24T09:33:00.564Z,30.20
2018-07-24T09:35:28.767Z,30.40
2018-07-24T09:37:56.953Z,30.00
2018-07-24T09:40:25.137Z,30.90
2018-07-24T09:42:53.636Z,31.40
2018-07-24T09:45:28.568Z,31.10
2018-07-24T09:47:56.754Z,31.70
2018-07-24T09:52:53.042Z,31.00
2018-07-24T09:55:21.307Z,30.80
2018-07-24T09:57:49.574Z,30.50
2018-07-24T10:00:22.042Z,30.90
2018-07-24T10:02:50.265Z,31.30
2018-07-24T10:05:18.545Z,32.00
2018-07-24T10:07:46.802Z,32.00
2018-07-24T10:10:15.228Z,31.50
2018-07-24T10:12:43.661Z,32.20
2018-07-24T10:15:11.977Z,31.30
2018-07-24T10:17:40.227Z,31.60
2018-07-24T10:20:08.548Z,31.90
2018-07-24T10:25:05.068Z,32.00
2018-07-24T10:27:33.377Z,31.70
2018-07-24T10:32:29.695Z,31.40
2018-07-24T10:34:58.078Z,31.00
2018-07-24T10:37:26.425Z,31.80
2018-07-24T10:39:54.689Z,31.50
2018-07-24T10:42:23.021Z,31.70
2018-07-24T10:44:51.402Z,32.60
2018-07-24T10:47:19.616Z,32.90
2018-07-24T10:49:47.935Z,32.60
2018-07-24T10:52:16.201Z,32.90
2018-07-24T10:54:44.508Z,32.60
2018-07-24T10:57:12.761Z,33.60
2018-07-24T10:59:41.054Z,34.70
2018-07-24T11:02:09.605Z,35.60
2018-07-24T11:04:38.002Z,35.90
2018-07-24T11:07:06.352Z,36.00
2018-07-24T11:09:34.622Z,33.80
2018-07-24T11:12:02.933Z,32.70
2018-07-24T11:14:31.246Z,32.50
2018-07-24T11:19:27.654Z,32.30
2018-07-24T11:21:56.032Z,32.20
2018-07-24T11:26:52.285Z,33.00
2018-07-24T11:29:20.686Z,33.00
2018-07-24T11:31:49.064Z,33.90
2018-07-24T11:34:17.419Z,35.80
2018-07-24T11:36:45.789Z,36.90
2018-07-24T11:39:14.106Z,35.30
2018-07-24T11:41:42.473Z,33.90
2018-07-24T11:44:10.934Z,32.60
2018-07-24T11:46:39.202Z,31.90
2018-07-24T11:49:07.614Z,31.30
2018-07-24T11:51:35.978Z,31.50
2018-07-24T11:56:32.287Z,32.50
2018-07-24T11:59:00.624Z,32.50
2018-07-24T12:01:28.874Z,33.60
2018-07-24T12:03:57.173Z,33.70
2018-07-24T12:06:25.503Z,33.40
2018-07-24T12:08:53.790Z,32.70
2018-07-24T12:11:22.089Z,32.30
2018-07-24T12:13:50.359Z,33.70
2018-07-24T12:16:18.653Z,32.80
2018-07-24T12:18:46.921Z,32.10
2018-07-24T12:21:15.330Z,32.00
2018-07-24T12:26:11.657Z,32.60
2018-07-24T12:28:40.020Z,32.10
2018-07-24T12:31:08.400Z,32.20
2018-07-24T12:33:36.667Z,31.80
2018-07-24T12:36:05.088Z,31.60
2018-07-24T12:38:33.238Z,31.90
2018-07-24T12:41:01.538Z,31.80
2018-07-24T12:45:57.870Z,32.10
2018-07-24T12:48:26.057Z,33.00
2018-07-24T12:50:54.289Z,32.20
2018-07-24T12:53:22.505Z,32.10
2018-07-24T12:58:18.670Z,32.70
2018-07-24T13:00:46.865Z,32.80
2018-07-24T13:03:15.019Z,32.30
2018-07-24T13:05:43.227Z,32.40
2018-07-24T13:08:11.381Z,32.30
2018-07-24T13:10:39.571Z,32.60
2018-07-24T13:13:07.790Z,33.10
2018-07-24T13:15:35.954Z,32.50
2018-07-24T13:18:04.562Z,32.60
2018-07-24T13:25:28.815Z,33.00
2018-07-24T13:27:56.993Z,33.60
2018-07-24T13:30:25.172Z,33.60
2018-07-24T13:32:53.297Z,33.00
2018-07-24T13:37:49.401Z,32.00
2018-07-24T13:40:17.582Z,32.10
2018-07-24T13:42:45.801Z,31.80
2018-07-24T13:45:14.000Z,31.90
2018-07-24T13:47:42.185Z,31.80
2018-07-24T13:50:10.382Z,32.40
2018-07-24T13:52:38.525Z,32.20
2018-07-24T13:55:06.702Z,32.20
2018-07-24T13:57:34.861Z,32.30
2018-07-24T14:00:03.045Z,32.30
2018-07-24T14:02:31.276Z,32.50
2018-07-24T14:04:59.437Z,32.80
2018-07-24T14:07:27.589Z,32.90
2018-07-24T14:09:55.752Z,32.70
2018-07-24T14:12:23.927Z,32.20
2018-07-24T14:14:52.113Z,32.20
2018-07-24T14:17:20.256Z,31.90
2018-07-24T14:19:48.447Z,31.90
2018-07-24T14:22:16.630Z,31.60
2018-07-24T14:24:44.807Z,31.70
2018-07-24T14:27:12.978Z,31.90
2018-07-24T14:29:41.155Z,31.80
2018-07-24T14:32:09.637Z,32.00
2018-07-24T14:34:37.796Z,32.10
2018-07-24T14:37:06.038Z,32.30
2018-07-24T14:42:02.163Z,31.90
2018-07-24T14:44:30.314Z,32.10
2018-07-24T14:46:58.482Z,31.70
2018-07-24T14:49:26.638Z,31.70
2018-07-24T14:51:54.818Z,31.40
2018-07-24T14:54:23.014Z,31.50
2018-07-24T14:56:51.360Z,31.40
2018-07-24T14:59:19.513Z,31.40
2018-07-24T15:01:47.684Z,31.30
2018-07-24T15:04:15.846Z,31.30
2018-07-24T15:09:18.383Z,31.30
2018-07-24T15:11:46.562Z,31.00
2018-07-24T15:14:14.739Z,31.00
2018-07-24T15:16:42.888Z,31.60
2018-07-24T15:19:11.227Z,31.60
2018-07-24T15:21:39.426Z,31.40
2018-07-24T15:24:07.611Z,30.90
2018-07-24T15:26:35.771Z,31.00
2018-07-24T15:29:04.032Z,30.90
2018-07-24T15:31:32.207Z,31.40
2018-07-24T15:36:28.319Z,31.40
2018-07-24T15:38:56.456Z,31.60
2018-07-24T15:41:24.686Z,31.00
2018-07-24T15:43:52.807Z,31.00
2018-07-24T15:46:20.972Z,31.30
2018-07-24T15:48:49.155Z,31.20
2018-07-24T15:51:17.301Z,31.50
2018-07-24T15:56:13.418Z,30.90
2018-07-24T15:58:41.629Z,30.70
2018-07-24T16:01:09.841Z,30.80
2018-07-24T16:03:37.993Z,30.70
2018-07-24T16:06:06.177Z,30.90
2018-07-24T16:08:34.338Z,30.80
2018-07-24T16:11:02.551Z,31.10
2018-07-24T16:13:30.743Z,31.20
2018-07-24T16:15:58.910Z,31.20
2018-07-24T16:18:27.045Z,31.10
2018-07-24T16:20:55.293Z,31.20
2018-07-24T16:23:23.449Z,31.40
2018-07-24T16:25:51.623Z,31.20
2018-07-24T16:30:47.726Z,31.10
2018-07-24T16:33:15.897Z,31.00
2018-07-24T16:35:44.084Z,31.40
2018-07-24T16:38:12.283Z,31.20
2018-07-24T16:40:40.464Z,31.20
2018-07-24T16:45:36.570Z,30.90
2018-07-24T16:48:04.764Z,31.20
2018-07-24T16:50:33.067Z,31.10
2018-07-24T16:53:01.152Z,31.00
2018-07-24T16:55:29.331Z,30.90
2018-07-24T16:57:57.565Z,30.90
2018-07-24T17:00:25.694Z,30.90
2018-07-24T17:02:54.013Z,30.50
2018-07-24T17:05:22.175Z,30.40
2018-07-24T17:07:50.481Z,30.30
2018-07-24T17:10:18.764Z,30.30
2018-07-24T17:12:47.065Z,30.30
2018-07-24T17:15:15.369Z,30.40
2018-07-24T17:17:43.749Z,30.40
2018-07-24T17:20:11.983Z,30.30
2018-07-24T17:22:40.494Z,30.30
2018-07-24T17:25:08.760Z,30.30
2018-07-24T17:27:37.182Z,30.30
2018-07-24T17:30:05.817Z,30.20
2018-07-24T17:32:34.143Z,30.00
2018-07-24T17:35:02.471Z,30.10
2018-07-24T17:37:30.937Z,30.00
2018-07-24T17:42:27.220Z,29.70
2018-07-24T17:44:55.549Z,29.60
2018-07-24T17:47:23.890Z,29.50
2018-07-24T17:49:52.237Z,29.40
2018-07-24T17:52:20.518Z,29.40
2018-07-24T17:54:48.937Z,29.30
2018-07-24T17:57:17.300Z,29.30
2018-07-24T17:59:45.623Z,29.30
2018-07-24T18:04:42.030Z,29.30
2018-07-24T18:07:10.288Z,29.20
2018-07-24T18:09:38.553Z,29.10
2018-07-24T18:12:07.028Z,29.20
2018-07-24T18:14:35.345Z,29.20
2018-07-24T18:17:03.649Z,29.20
2018-07-24T18:19:32.009Z,29.20
2018-07-24T18:22:00.350Z,29.10
2018-07-24T18:24:28.629Z,29.10
2018-07-24T18:26:56.928Z,29.00
2018-07-24T18:29:25.542Z,28.80
2018-07-24T18:31:53.881Z,28.70
2018-07-24T18:34:22.195Z,28.60
2018-07-24T18:36:50.508Z,28.60
2018-07-24T18:39:18.900Z,28.40
2018-07-24T18:41:47.289Z,28.10
2018-07-24T18:44:15.629Z,28.00
2018-07-24T18:49:11.919Z,27.90
2018-07-24T18:51:40.206Z,27.70
2018-07-24T18:54:08.476Z,27.50
2018-07-24T18:56:36.733Z,27.50
2018-07-24T18:59:05.441Z,27.50
2018-07-24T19:01:33.769Z,27.30
2018-07-24T19:04:02.156Z,27.00
2018-07-24T19:06:30.465Z,26.60
2018-07-24T19:08:58.821Z,26.60
2018-07-24T19:11:27.127Z,26.50
2018-07-24T19:13:55.383Z,26.50
2018-07-24T19:16:23.783Z,26.40
2018-07-24T19:18:52.123Z,26.20
2018-07-24T19:21:20.428Z,26.20
2018-07-24T19:23:48.784Z,26.30
2018-07-24T19:26:17.052Z,26.20
2018-07-24T19:28:45.307Z,26.10
2018-07-24T19:31:13.654Z,26.20
2018-07-24T19:33:41.921Z,25.90
2018-07-24T19:36:10.225Z,25.80
2018-07-24T19:38:38.538Z,25.70
2018-07-24T19:41:06.817Z,25.60
2018-07-24T19:43:35.230Z,25.40
2018-07-24T19:46:03.542Z,25.30
2018-07-24T19:48:31.894Z,24.90
2018-07-24T19:51:00.209Z,24.80
2018-07-24T19:53:28.532Z,24.70
2018-07-24T19:55:56.810Z,24.50
2018-07-24T19:58:25.102Z,24.50
2018-07-24T20:00:53.463Z,24.30
2018-07-24T20:03:21.878Z,24.30
2018-07-24T20:05:50.260Z,24.30
2018-07-24T20:08:18.536Z,24.20
2018-07-24T20:10:46.867Z,24.00
2018-07-24T20:13:15.221Z,23.90
2018-07-24T20:18:11.614Z,23.90
2018-07-24T20:20:39.986Z,23.80
2018-07-24T20:23:08.295Z,23.80
2018-07-24T20:25:36.653Z,23.40
2018-07-24T20:28:05.135Z,23.30
2018-07-24T20:30:33.394Z,23.30
2018-07-24T20:33:01.771Z,23.40
2018-07-24T20:35:30.184Z,23.20
2018-07-24T20:37:58.473Z,22.80
2018-07-24T20:40:26.741Z,22.60
2018-07-24T20:42:55.031Z,22.40
2018-07-24T20:45:23.342Z,22.60
2018-07-24T20:47:51.743Z,23.00
2018-07-24T20:50:20.055Z,23.40
2018-07-24T20:52:48.324Z,23.10
2018-07-24T20:55:16.613Z,22.80
2018-07-24T20:57:45.020Z,22.50
2018-07-24T21:00:13.436Z,22.50
2018-07-24T21:02:41.692Z,22.50
2018-07-24T21:05:10.035Z,22.60
2018-07-24T21:07:38.337Z,22.60
2018-07-24T21:10:10.877Z,22.30
2018-07-24T21:12:39.186Z,22.10
2018-07-24T21:15:07.430Z,22.50
2018-07-24T21:17:35.729Z,22.90
2018-07-24T21:22:32.130Z,22.40
2018-07-24T21:25:00.466Z,22.10
2018-07-24T21:27:28.799Z,22.00
2018-07-24T21:29:57.146Z,22.00
2018-07-24T21:32:25.553Z,21.80
2018-07-24T21:34:53.985Z,21.50
2018-07-24T21:37:22.358Z,21.30
2018-07-24T21:42:18.609Z,21.00
2018-07-24T21:44:46.918Z,20.90
2018-07-24T21:47:15.193Z,20.90
2018-07-24T21:49:43.598Z,21.10
2018-07-24T21:52:11.915Z,21.10
2018-07-24T21:54:40.255Z,21.30
2018-07-24T21:57:08.586Z,21.80
2018-07-24T21:59:36.962Z,21.90
2018-07-24T22:02:05.391Z,21.70
2018-07-24T22:04:33.660Z,21.30
2018-07-24T22:07:01.987Z,21.10
2018-07-24T22:09:30.262Z,20.80
2018-07-24T22:11:58.538Z,20.80
2018-07-24T22:14:26.885Z,20.60
2018-07-24T22:16:55.291Z,20.70
2018-07-24T22:19:23.625Z,21.00
2018-07-24T22:21:51.898Z,20.80
2018-07-24T22:24:20.194Z,20.80
2018-07-24T22:26:48.461Z,21.10
2018-07-24T22:29:16.768Z,21.40
2018-07-24T22:36:41.198Z,20.90
2018-07-24T22:39:11.074Z,20.90
2018-07-24T22:41:39.342Z,21.00
2018-07-24T22:44:07.742Z,20.70
2018-07-24T22:46:36.045Z,20.50
2018-07-24T22:49:04.422Z,20.20
2018-07-24T22:58:56.938Z,20.10
2018-07-24T23:01:25.246Z,20.40
2018-07-24T23:03:53.748Z,20.70
2018-07-24T23:06:22.062Z,20.40
2018-07-24T23:08:50.406Z,20.00
2018-07-24T23:11:18.718Z,19.90
2018-07-24T23:13:47.033Z,20.50
2018-07-24T23:16:15.424Z,20.80
2018-07-24T23:18:43.756Z,20.40
2018-07-24T23:21:12.093Z,19.80
2018-07-24T23:23:40.348Z,19.70
2018-07-24T23:26:08.733Z,20.10
2018-07-24T23:28:37.032Z,20.40
2018-07-24T23:31:06.354Z,20.40
2018-07-24T23:33:34.700Z,19.90
2018-07-24T23:36:03.002Z,19.70
2018-07-24T23:40:59.435Z,19.50
2018-07-24T23:43:27.699Z,19.80
2018-07-24T23:45:55.969Z,20.30
2018-07-24T23:48:24.286Z,20.50
2018-07-24T23:50:52.611Z,20.40
2018-07-24T23:53:20.962Z,20.40
2018-07-24T23:55:49.366Z,19.90
2018-07-24T23:58:17.778Z,20.10
